Time;durP1;ratioP1;P1;durP2;ratioP2;P2;SDS_P1;SDS_P2;PMS_P1;PMS_P2;Temp;Humidity;BMP_temperature;BMP_pressure;BME280_temperature;BME280_humidity;BME280_pressure;Samples;Min_cycle;Max_cycle;Signal;HPM_P1;HPM_P2
2023/01/29 00:01:12;;;;;;;41.13;18.80;;;;;;;0.81;100.00;102238.38;7391624;19;20194;-59
2023/01/29 00:03:42;;;;;;;41.80;19.20;;;;;;;0.81;100.00;102238.38;7396878;19;20412;-58
2023/01/29 00:06:14;;;;;;;36.92;16.85;;;;;;;0.82;100.00;102235.09;7393430;19;20420;-57
2023/01/29 00:08:44;;;;;;;43.33;16.30;;;;;;;0.82;100.00;102224.94;7396538;19;20168;-58
2023/01/29 00:11:13;;;;;;;39.67;18.80;;;;;;;0.84;100.00;102220.94;7390809;19;20431;-56
2023/01/29 00:13:42;;;;;;;43.50;17.90;;;;;;;0.84;100.00;102220.94;7396062;19;20139;-61
2023/01/29 00:16:12;;;;;;;47.50;18.87;;;;;;;0.85;100.00;102217.66;7392036;19;20415;-60
2023/01/29 00:18:42;;;;;;;36.93;16.47;;;;;;;0.86;100.00;102213.47;7395916;19;20379;-57
2023/01/29 00:21:16;;;;;;;42.70;19.47;;;;;;;0.86;100.00;102200.78;7379608;19;20431;-58
2023/01/29 00:23:46;;;;;;;38.47;15.98;;;;;;;0.86;100.00;102191.47;7396015;19;20412;-58
2023/01/29 00:26:16;;;;;;;42.60;18.48;;;;;;;0.88;100.00;102181.47;7392313;19;20211;-60
2023/01/29 00:28:45;;;;;;;41.43;18.03;;;;;;;0.88;100.00;102181.47;7396354;19;20497;-58
2023/01/29 00:31:18;;;;;;;40.43;17.60;;;;;;;0.91;100.00;102176.69;7389909;19;20408;-59
2023/01/29 00:33:48;;;;;;;36.00;15.18;;;;;;;0.89;100.00;102174.03;7395404;19;20420;-57
2023/01/29 00:36:22;;;;;;;47.53;18.77;;;;;;;0.94;100.00;102167.75;7392429;19;20190;-61
2023/01/29 00:38:57;;;;;;;39.65;16.98;;;;;;;0.88;100.00;102171.31;7395741;19;20135;-57
2023/01/29 00:46:53;;;;;;;36.07;15.17;;;;;;;0.91;100.00;102167.44;7390796;19;20441;-59
2023/01/29 00:49:23;;;;;;;34.00;13.30;;;;;;;0.94;100.00;102167.75;7395123;19;20400;-60
2023/01/29 00:54:37;;;;;;;35.80;14.23;;;;;;;0.96;100.00;102189.91;7394378;19;20738;-59
2023/01/29 00:57:06;;;;;;;32.03;14.40;;;;;;;0.90;100.00;102186.00;7390625;19;21118;-58
2023/01/29 00:59:36;;;;;;;38.40;17.30;;;;;;;0.97;100.00;102179.00;7393819;19;20387;-57
2023/01/29 01:04:47;;;;;;;34.10;15.03;;;;;;;1.02;100.00;102180.38;7391221;19;20127;-57
2023/01/29 01:07:19;;;;;;;35.33;15.50;;;;;;;1.05;100.00;102175.59;7389140;19;21316;-58
2023/01/29 01:12:31;;;;;;;32.03;13.20;;;;;;;1.03;100.00;102177.09;7387817;19;20431;-54
2023/01/29 01:15:00;;;;;;;41.00;16.20;;;;;;;1.12;100.00;102172.94;7391366;19;20515;-60
2023/01/29 01:17:29;;;;;;;34.30;15.10;;;;;;;1.07;100.00;102174.09;7388375;19;20444;-58
2023/01/29 01:19:59;;;;;;;37.23;16.60;;;;;;;1.09;100.00;102167.56;7390187;19;20803;-58
2023/01/29 01:22:31;;;;;;;35.00;15.40;;;;;;;1.12;100.00;102172.06;7387118;19;20431;-56
2023/01/29 01:25:00;;;;;;;31.17;14.53;;;;;;;1.10;100.00;102171.91;7391026;19;20359;-57
2023/01/29 01:27:30;;;;;;;38.53;15.70;;;;;;;1.17;100.00;102174.31;7389107;19;20415;-55
2023/01/29 01:30:00;;;;;;;33.10;13.20;;;;;;;1.14;100.00;102186.72;7390046;19;20969;-54
2023/01/29 01:32:30;;;;;;;37.50;17.63;;;;;;;1.20;100.00;102187.38;7387295;19;20418;-58
2023/01/29 01:34:59;;;;;;;42.70;16.53;;;;;;;1.24;100.00;102172.41;7390640;19;20412;-57
2023/01/29 01:37:31;;;;;;;37.60;14.47;;;;;;;1.21;100.00;102178.06;7387936;19;20417;-58
2023/01/29 01:40:02;;;;;;;35.63;14.70;;;;;;;1.18;100.00;102175.22;7389072;19;20394;-59
2023/01/29 01:42:32;;;;;;;31.30;14.33;;;;;;;1.18;100.00;102181.19;7386819;19;20423;-58
2023/01/29 01:45:04;;;;;;;32.30;14.60;;;;;;;1.19;100.00;102184.66;7390258;19;20383;-55
2023/01/29 01:47:37;;;;;;;29.30;13.60;;;;;;;1.15;100.00;102182.53;7388194;19;20494;-52
2023/01/29 01:50:10;;;;;;;32.40;13.83;;;;;;;1.16;100.00;102189.41;7388249;19;20456;-55
2023/01/29 01:52:45;;;;;;;33.03;13.67;;;;;;;1.15;100.00;102185.97;7387558;19;20442;-58
2023/01/29 01:55:16;;;;;;;29.50;13.60;;;;;;;1.15;100.00;102191.06;7390288;19;20383;-55
2023/01/29 01:57:47;;;;;;;33.87;15.10;;;;;;;1.18;100.00;102198.13;7389638;19;20411;-55
2023/01/29 02:00:20;;;;;;;32.93;12.80;;;;;;;1.16;100.00;102197.94;7388882;19;20431;-57
2023/01/29 02:11:03;;;;;;;27.70;12.97;;;;;;;1.15;100.00;102206.31;7388971;19;20404;-52
2023/01/29 02:13:33;;;;;;;25.93;11.13;;;;;;;1.15;100.00;102202.88;7388250;19;20384;-57
2023/01/29 02:16:02;;;;;;;31.33;14.80;;;;;;;1.20;100.00;102202.63;7386885;19;20462;-59
2023/01/29 02:18:36;;;;;;;17.67;6.90;;;;;;;1.15;100.00;102202.88;7396648;19;20387;-54
2023/01/29 02:21:23;;;;;;;40.27;15.60;;;;;;;1.18;100.00;102204.09;7393145;19;20395;-57
2023/01/29 02:24:06;;;;;;;25.27;11.90;;;;;;;1.21;100.00;102188.25;7397058;19;20391;-53
2023/01/29 02:26:45;;;;;;;21.47;10.43;;;;;;;1.23;100.00;102193.50;7395744;19;20422;-54
2023/01/29 02:29:27;;;;;;;28.50;14.00;;;;;;;1.19;100.00;102182.09;7396431;19;20413;-58
2023/01/29 02:32:09;;;;;;;29.93;14.20;;;;;;;1.21;100.00;102173.00;7394097;19;20418;-55
2023/01/29 02:37:30;;;;;;;29.77;12.17;;;;;;;1.19;100.00;102175.38;7395731;19;20440;-56
2023/01/29 02:40:09;;;;;;;27.43;12.73;;;;;;;1.27;100.00;102173.63;7395018;19;20418;-53
2023/01/29 02:42:42;;;;;;;29.20;13.40;;;;;;;1.30;100.00;102178.13;7389019;19;20433;-56
2023/01/29 02:45:17;;;;;;;29.13;12.13;;;;;;;1.29;100.00;102173.78;7400054;19;20469;-58
2023/01/29 02:47:50;;;;;;;35.47;14.77;;;;;;;1.31;100.00;102173.19;7398217;19;20444;-53
2023/01/29 02:50:22;;;;;;;34.80;14.73;;;;;;;1.31;100.00;102165.56;7397798;19;20815;-56
2023/01/29 02:52:58;;;;;;;27.93;11.23;;;;;;;1.31;100.00;102172.28;7397364;19;20479;-57
2023/01/29 02:55:32;;;;;;;23.77;11.20;;;;;;;1.30;100.00;102170.50;7395854;19;20379;-58
2023/01/29 02:58:06;;;;;;;28.93;11.70;;;;;;;1.31;100.00;102167.19;7399464;19;20405;-53
2023/01/29 03:00:41;;;;;;;29.93;12.80;;;;;;;1.32;100.00;102151.19;7394100;19;20437;-53
2023/01/29 03:03:15;;;;;;;35.47;13.35;;;;;;;1.31;100.00;102150.31;7399526;19;20403;-56
2023/01/29 03:05:52;;;;;;;44.50;16.40;;;;;;;1.34;100.00;102139.53;7395462;19;20577;-57
2023/01/29 03:08:23;;;;;;;28.60;13.43;;;;;;;1.31;100.00;102139.22;7399744;19;20399;-56
2023/01/29 03:10:56;;;;;;;25.03;12.10;;;;;;;1.32;100.00;102133.38;7392825;19;20417;-58
2023/01/29 03:13:31;;;;;;;15.47;6.57;;;;;;;1.35;100.00;102136.25;7398586;19;20414;-55
2023/01/29 03:16:07;;;;;;;27.37;12.40;;;;;;;1.35;100.00;102132.03;7394608;19;20416;-56
2023/01/29 03:18:44;;;;;;;29.63;13.23;;;;;;;1.37;100.00;102128.78;7398070;19;20391;-55
2023/01/29 03:32:18;;;;;;;30.00;13.13;;;;;;;1.42;100.00;102127.56;7395132;19;20837;-57
2023/01/29 03:34:51;;;;;;;26.10;14.17;;;;;;;1.42;100.00;102130.13;7395769;19;20404;-54
2023/01/29 03:37:25;;;;;;;27.97;11.73;;;;;;;1.43;100.00;102122.66;7395000;19;20451;-56
2023/01/29 03:39:54;;;;;;;27.90;12.50;;;;;;;1.41;100.00;102121.59;7397037;19;20785;-54
2023/01/29 03:42:28;;;;;;;33.33;12.97;;;;;;;1.43;100.00;102115.03;7394862;19;20437;-53
2023/01/29 03:45:02;;;;;;;22.23;11.53;;;;;;;1.44;100.00;102121.91;7398009;19;20906;-57
2023/01/29 03:47:43;;;;;;;26.93;12.00;;;;;;;1.48;100.00;102121.47;7393982;19;20443;-56
2023/01/29 03:50:21;;;;;;;39.43;13.20;;;;;;;1.48;100.00;102124.03;7395841;19;20986;-56
2023/01/29 03:52:52;;;;;;;17.07;9.47;;;;;;;1.43;100.00;102117.56;7396574;19;20522;-56
2023/01/29 03:55:26;;;;;;;30.50;12.77;;;;;;;1.42;100.00;102113.22;7395711;19;20395;-58
2023/01/29 03:57:59;;;;;;;19.63;10.17;;;;;;;1.44;100.00;102121.03;7396954;19;20387;-55
2023/01/29 04:00:31;;;;;;;15.27;8.47;;;;;;;1.40;100.00;102119.81;7391907;19;20455;-56
2023/01/29 04:03:08;;;;;;;28.27;12.37;;;;;;;1.42;100.00;102123.41;7396800;19;20395;-54
2023/01/29 04:05:41;;;;;;;17.87;8.43;;;;;;;1.42;100.00;102108.13;7393780;19;20403;-58
2023/01/29 04:08:14;;;;;;;24.50;12.27;;;;;;;1.46;100.00;102117.91;7397184;19;20399;-55
2023/01/29 04:10:45;;;;;;;28.10;13.17;;;;;;;1.43;100.00;102117.56;7392216;19;20758;-60
2023/01/29 04:13:15;;;;;;;16.40;7.80;;;;;;;1.42;100.00;102125.94;7396100;19;20415;-54
2023/01/29 04:15:48;;;;;;;18.63;6.30;;;;;;;1.42;100.00;102118.31;7393085;19;20408;-56
2023/01/29 04:18:20;;;;;;;26.53;13.40;;;;;;;1.43;100.00;102120.09;7397296;19;20398;-58
2023/01/29 04:20:49;;;;;;;26.30;12.80;;;;;;;1.46;100.00;102114.44;7390448;19;20779;-56
2023/01/29 04:23:24;;;;;;;20.83;9.97;;;;;;;1.39;100.00;102130.72;7397473;19;20418;-56
2023/01/29 04:26:06;;;;;;;24.70;12.77;;;;;;;1.38;100.00;102123.81;7392577;19;20402;-54
2023/01/29 04:28:48;;;;;;;25.20;12.43;;;;;;;1.40;100.00;102122.34;7395615;19;20403;-55
2023/01/29 04:31:18;;;;;;;18.83;8.17;;;;;;;1.34;100.00;102121.75;7391547;19;20413;-56
2023/01/29 04:33:57;;;;;;;24.00;11.70;;;;;;;1.35;100.00;102121.88;7396340;19;20987;-55
2023/01/29 04:36:33;;;;;;;29.87;13.17;;;;;;;1.38;100.00;102121.28;7393204;19;20455;-54
2023/01/29 04:39:10;;;;;;;26.83;13.47;;;;;;;1.42;100.00;102120.84;7395951;19;20768;-54
2023/01/29 04:41:45;;;;;;;27.33;14.23;;;;;;;1.37;100.00;102124.56;7390622;19;20432;-56
2023/01/29 04:44:19;;;;;;;29.50;9.67;;;;;;;1.38;100.00;102125.50;7397079;19;20410;-54
2023/01/29 04:46:51;;;;;;;33.07;12.43;;;;;;;1.41;100.00;102129.25;7391814;19;20450;-59
2023/01/29 04:49:31;;;;;;;29.90;13.47;;;;;;;1.39;100.00;102128.16;7396062;19;20419;-58
2023/01/29 04:52:05;;;;;;;31.30;13.80;;;;;;;1.40;100.00;102119.81;7391500;19;20443;-58
2023/01/29 04:54:44;;;;;;;25.97;12.50;;;;;;;1.37;100.00;102129.66;7394240;19;20411;-56
2023/01/29 04:57:21;;;;;;;26.83;12.63;;;;;;;1.40;100.00;102119.81;7391930;19;20414;-53
2023/01/29 04:59:55;;;;;;;27.27;11.13;;;;;;;1.36;100.00;102120.25;7394567;19;20597;-58
2023/01/29 05:02:26;;;;;;;23.97;10.10;;;;;;;1.33;100.00;102120.81;7391947;19;20471;-54
2023/01/29 05:04:59;;;;;;;26.42;13.35;;;;;;;1.32;100.00;102101.22;7395055;19;20480;-54
2023/01/29 05:07:31;;;;;;;26.30;12.53;;;;;;;1.31;100.00;102098.53;7392169;19;20306;-56
2023/01/29 05:10:02;;;;;;;27.00;12.10;;;;;;;1.34;100.00;102098.84;7394209;19;20460;-58
2023/01/29 05:12:32;;;;;;;26.43;14.50;;;;;;;1.32;100.00;102092.69;7391386;19;20446;-58
2023/01/29 05:15:04;;;;;;;22.53;10.67;;;;;;;1.28;100.00;102103.31;7394221;19;20404;-56
2023/01/29 05:17:33;;;;;;;25.33;12.10;;;;;;;1.26;100.00;102085.34;7392143;19;20455;-58
2023/01/29 05:20:06;;;;;;;23.03;12.00;;;;;;;1.23;100.00;102091.78;7393411;19;20812;-58
2023/01/29 05:22:37;;;;;;;22.70;9.70;;;;;;;1.18;100.00;102084.56;7391144;19;20426;-56
2023/01/29 05:25:23;;;;;;;24.07;11.77;;;;;;;1.19;100.00;102094.00;7395207;19;20427;-56
2023/01/29 05:28:07;;;;;;;18.50;8.47;;;;;;;1.19;100.00;102098.19;7393979;19;20439;-57
2023/01/29 05:30:38;;;;;;;24.43;9.53;;;;;;;1.18;100.00;102092.19;7389636;19;20442;-55
2023/01/29 05:33:14;;;;;;;32.57;12.07;;;;;;;1.16;100.00;102091.16;7395373;19;20403;-57
2023/01/29 05:35:46;;;;;;;24.58;10.75;;;;;;;1.16;100.00;102075.00;7389270;19;20418;-57
2023/01/29 05:38:16;;;;;;;34.87;13.90;;;;;;;1.14;100.00;102085.03;7395256;19;20155;-51
2023/01/29 05:40:46;;;;;;;24.20;12.07;;;;;;;1.15;100.00;102085.91;7389154;19;20414;-54
2023/01/29 05:43:17;;;;;;;21.48;10.52;;;;;;;1.09;100.00;102083.66;7394629;19;20409;-53
2023/01/29 05:45:53;;;;;;;18.60;9.00;;;;;;;1.09;100.00;102091.28;7390476;19;20669;-56
2023/01/29 05:48:23;;;;;;;20.43;9.90;;;;;;;1.08;100.00;102085.28;7395340;19;20399;-53
2023/01/29 05:50:55;;;;;;;20.27;6.63;;;;;;;1.09;100.00;102104.00;7388836;19;20423;-54
2023/01/29 05:53:25;;;;;;;26.33;10.30;;;;;;;1.05;100.00;102094.25;7401570;19;20379;-57
2023/01/29 05:55:56;;;;;;;24.53;12.03;;;;;;;1.04;100.00;102097.53;7392558;19;20918;-55
2023/01/29 05:58:25;;;;;;;28.93;11.97;;;;;;;1.07;100.00;102097.84;7403153;19;20398;-55
2023/01/29 06:00:54;;;;;;;31.83;14.57;;;;;;;1.11;100.00;102105.03;7395708;19;20422;-58
2023/01/29 06:03:24;;;;;;;29.23;12.27;;;;;;;1.08;100.00;102086.94;7402319;19;20391;-55
2023/01/29 06:05:56;;;;;;;28.13;11.63;;;;;;;1.09;100.00;102086.19;7397492;19;20982;-56
2023/01/29 06:08:25;;;;;;;35.00;14.60;;;;;;;1.13;100.00;102102.66;7402116;19;20799;-55
2023/01/29 06:10:55;;;;;;;32.57;13.53;;;;;;;1.06;100.00;102099.50;7395528;19;20407;-58
2023/01/29 06:13:24;;;;;;;30.43;12.80;;;;;;;1.05;100.00;102085.00;7402001;19;20757;-57
2023/01/29 06:15:53;;;;;;;23.93;11.70;;;;;;;1.03;100.00;102075.41;7394727;19;20398;-53
2023/01/29 06:18:23;;;;;;;26.90;11.90;;;;;;;1.04;100.00;102085.72;7401281;19;20420;-55
2023/01/29 06:20:55;;;;;;;31.83;12.70;;;;;;;1.05;100.00;102084.09;7394877;19;20427;-52
2023/01/29 06:23:25;;;;;;;23.53;11.13;;;;;;;0.99;100.00;102068.22;7401655;19;20399;-58
2023/01/29 06:25:54;;;;;;;19.67;9.02;;;;;;;0.96;100.00;102052.66;7396311;19;20414;-53
2023/01/29 06:28:23;;;;;;;26.97;12.10;;;;;;;0.97;100.00;102064.63;7401395;19;20159;-54
2023/01/29 06:30:53;;;;;;;23.27;11.03;;;;;;;0.96;100.00;102053.53;7394804;19;20439;-54
2023/01/29 06:33:22;;;;;;;30.13;13.57;;;;;;;1.01;100.00;102048.91;7400972;19;20406;-57
2023/01/29 06:35:59;;;;;;;26.13;10.90;;;;;;;1.00;100.00;102039.50;7394831;19;20424;-52
2023/01/29 06:38:29;;;;;;;34.33;12.67;;;;;;;0.98;100.00;102034.28;7399301;19;20414;-55
2023/01/29 06:40:59;;;;;;;32.10;12.97;;;;;;;0.97;100.00;102045.16;7395294;19;20453;-59
2023/01/29 06:43:28;;;;;;;30.53;14.37;;;;;;;1.03;100.00;102044.91;7399321;19;20395;-55
2023/01/29 06:45:59;;;;;;;34.20;15.50;;;;;;;1.01;100.00;102046.38;7395960;19;20423;-58
2023/01/29 06:48:28;;;;;;;37.37;13.30;;;;;;;0.99;100.00;102033.53;7399199;19;20411;-58
2023/01/29 06:51:03;;;;;;;37.03;13.60;;;;;;;1.01;100.00;102031.13;7393333;19;20421;-58
2023/01/29 06:53:34;;;;;;;28.60;13.77;;;;;;;0.97;100.00;102042.63;7399227;19;20375;-59
2023/01/29 06:56:03;;;;;;;29.63;12.47;;;;;;;1.00;100.00;102052.19;7393695;19;20438;-60
2023/01/29 06:58:33;;;;;;;31.00;12.97;;;;;;;0.99;100.00;102053.88;7398875;19;20406;-53
2023/01/29 07:01:06;;;;;;;25.43;10.33;;;;;;;0.98;100.00;102057.16;7393481;19;20394;-55
2023/01/29 07:03:37;;;;;;;31.13;12.27;;;;;;;0.98;100.00;102053.69;7397906;19;20398;-57
2023/01/29 07:06:09;;;;;;;29.43;12.80;;;;;;;1.00;100.00;102052.19;7395364;19;20488;-57
2023/01/29 07:08:39;;;;;;;28.17;12.73;;;;;;;0.98;100.00;102052.06;7399280;19;20415;-59
2023/01/29 07:11:09;;;;;;;28.70;12.40;;;;;;;1.01;100.00;102061.63;7393131;19;20435;-53
2023/01/29 07:13:38;;;;;;;29.53;12.37;;;;;;;1.02;100.00;102073.63;7398520;19;21235;-57
2023/01/29 07:16:09;;;;;;;25.47;11.10;;;;;;;1.02;100.00;102068.53;7393925;19;20770;-57
2023/01/29 07:18:38;;;;;;;23.13;11.23;;;;;;;1.01;100.00;102077.78;7399201;19;20732;-58
2023/01/29 07:21:10;;;;;;;27.50;11.00;;;;;;;0.99;100.00;102079.28;7392298;19;20403;-57
2023/01/29 07:23:40;;;;;;;27.00;10.90;;;;;;;1.02;100.00;102081.25;7398319;19;20419;-60
2023/01/29 07:26:09;;;;;;;25.55;10.77;;;;;;;1.01;100.00;102093.03;7394131;19;20204;-58
2023/01/29 07:28:40;;;;;;;22.98;9.35;;;;;;;1.04;100.00;102093.34;7398142;19;20142;-54
2023/01/29 07:31:10;;;;;;;22.13;9.50;;;;;;;1.06;100.00;102085.88;7392879;19;20206;-53
2023/01/29 07:33:40;;;;;;;23.07;10.50;;;;;;;1.10;100.00;102097.25;7397728;19;20390;-58
2023/01/29 07:36:13;;;;;;;23.43;11.07;;;;;;;1.08;100.00;102079.31;7393605;19;20407;-55
2023/01/29 07:38:43;;;;;;;30.30;11.00;;;;;;;1.09;100.00;102086.19;7397992;19;20383;-53
2023/01/29 07:41:13;;;;;;;17.40;8.00;;;;;;;1.07;100.00;102083.50;7392789;19;20411;-53
2023/01/29 07:43:42;;;;;;;26.35;10.88;;;;;;;1.06;100.00;102090.97;7397594;19;20945;-53
2023/01/29 07:46:12;;;;;;;29.80;11.60;;;;;;;1.07;100.00;102093.66;7393667;19;20200;-56
2023/01/29 07:48:41;;;;;;;27.03;10.90;;;;;;;1.05;100.00;102104.41;7397443;19;20391;-54
2023/01/29 07:51:15;;;;;;;31.13;14.15;;;;;;;1.03;100.00;102105.91;7391900;19;20394;-55
2023/01/29 07:53:46;;;;;;;28.17;11.37;;;;;;;1.02;100.00;102109.22;7397232;19;20156;-54
2023/01/29 07:56:15;;;;;;;17.30;7.67;;;;;;;1.00;100.00;102120.84;7392731;19;20771;-58
2023/01/29 07:58:44;;;;;;;26.27;13.93;;;;;;;1.03;100.00;102116.09;7397158;19;20431;-52
2023/01/29 08:01:14;;;;;;;28.53;12.93;;;;;;;1.00;100.00;102125.91;7389918;19;20434;-55
2023/01/29 08:03:43;;;;;;;30.60;15.07;;;;;;;1.02;100.00;102117.72;7396851;19;20396;-57
2023/01/29 08:06:15;;;;;;;31.10;13.87;;;;;;;0.94;100.00;102116.91;7393502;19;20435;-58
2023/01/29 08:08:45;;;;;;;31.63;14.17;;;;;;;0.99;100.00;102119.03;7396471;19;20403;-55
2023/01/29 08:11:14;;;;;;;35.70;14.03;;;;;;;1.02;100.00;102116.84;7391491;19;20426;-58
2023/01/29 08:13:45;;;;;;;28.23;13.57;;;;;;;1.04;100.00;102112.78;7396044;19;20403;-55
2023/01/29 08:16:14;;;;;;;30.73;15.43;;;;;;;1.05;100.00;102115.50;7391673;19;20412;-55
2023/01/29 08:18:46;;;;;;;18.47;8.50;;;;;;;1.04;100.00;102122.97;7396202;19;20399;-53
2023/01/29 08:21:18;;;;;;;25.70;12.43;;;;;;;1.05;100.00;102120.59;7390518;19;20958;-56
2023/01/29 08:23:48;;;;;;;35.30;15.07;;;;;;;1.04;100.00;102121.31;7396569;19;20138;-55
2023/01/29 08:26:17;;;;;;;42.93;17.70;;;;;;;1.06;100.00;102116.38;7392931;19;20190;-55
2023/01/29 08:28:47;;;;;;;36.83;15.67;;;;;;;1.04;100.00;102128.03;7396324;19;20418;-56
2023/01/29 08:31:18;;;;;;;38.00;17.70;;;;;;;1.02;100.00;102121.91;7391218;19;20446;-56
2023/01/29 08:33:47;;;;;;;31.90;15.10;;;;;;;1.04;100.00;102117.88;7395634;19;20385;-53
2023/01/29 08:36:19;;;;;;;35.83;16.90;;;;;;;1.03;100.00;102116.09;7392412;19;20404;-59
2023/01/29 08:38:49;;;;;;;30.37;13.30;;;;;;;1.03;100.00;102121.16;7396600;19;20404;-57
2023/01/29 08:41:18;;;;;;;45.83;18.13;;;;;;;1.03;100.00;102111.00;7391421;19;20945;-56
2023/01/29 08:43:48;;;;;;;27.90;14.40;;;;;;;1.02;100.00;102112.63;7395896;19;20401;-56
2023/01/29 08:46:17;;;;;;;32.07;16.40;;;;;;;1.05;100.00;102114.59;7389305;19;20411;-56
2023/01/29 08:48:47;;;;;;;32.63;12.47;;;;;;;1.05;100.00;102109.50;7394798;19;20423;-57
2023/01/29 08:51:17;;;;;;;43.07;19.20;;;;;;;1.08;100.00;102100.53;7390187;19;20443;-57
2023/01/29 08:53:49;;;;;;;48.97;20.50;;;;;;;1.12;100.00;102095.78;7392032;19;20428;-53
2023/01/29 08:56:19;;;;;;;40.43;17.93;;;;;;;1.11;100.00;102099.97;7388983;19;20455;-53
2023/01/29 08:58:49;;;;;;;38.83;18.27;;;;;;;1.11;100.00;102105.03;7389639;19;20407;-55
2023/01/29 09:01:18;;;;;;;44.05;20.58;;;;;;;1.11;100.00;102097.41;7386106;19;20455;-54
2023/01/29 09:03:49;;;;;;;50.90;19.77;;;;;;;1.12;100.00;102104.28;7389956;19;20623;-57
2023/01/29 09:06:18;;;;;;;30.50;14.27;;;;;;;1.09;100.00;102111.63;7386619;19;20427;-53
2023/01/29 09:08:50;;;;;;;44.87;19.20;;;;;;;1.07;100.00;102101.28;7389870;19;20443;-57
2023/01/29 09:11:20;;;;;;;40.83;18.60;;;;;;;1.12;100.00;102096.66;7385833;19;20439;-56
2023/01/29 09:13:49;;;;;;;54.30;21.93;;;;;;;1.12;100.00;102095.78;7391135;19;20410;-53
2023/01/29 09:16:18;;;;;;;34.40;12.20;;;;;;;1.14;100.00;102085.03;7387260;19;20443;-56
2023/01/29 09:18:48;;;;;;;56.47;24.03;;;;;;;1.19;100.00;102077.84;7390400;19;20420;-57
2023/01/29 09:21:17;;;;;;;53.50;22.67;;;;;;;1.23;100.00;102084.16;7385701;19;20458;-56
2023/01/29 09:23:49;;;;;;;38.40;18.43;;;;;;;1.25;100.00;102077.56;7390065;19;20395;-55
2023/01/29 09:26:19;;;;;;;51.60;22.33;;;;;;;1.24;100.00;102069.06;7385818;19;20443;-53
2023/01/29 09:28:48;;;;;;;60.57;20.93;;;;;;;1.31;100.00;102052.75;7389652;19;20394;-54
2023/01/29 09:31:18;;;;;;;50.77;17.63;;;;;;;1.28;100.00;102060.09;7386073;19;20435;-58
2023/01/29 09:33:47;;;;;;;61.13;24.50;;;;;;;1.31;100.00;102043.50;7389755;19;20431;-59
2023/01/29 09:36:17;;;;;;;56.70;26.07;;;;;;;1.33;100.00;102038.56;7385562;19;20454;-55
2023/01/29 09:38:46;;;;;;;51.67;21.83;;;;;;;1.31;100.00;102042.56;7390141;19;20411;-56
2023/01/29 09:41:28;;;;;;;57.73;24.70;;;;;;;1.33;100.00;102030.94;7385246;19;20509;-58
2023/01/29 09:44:01;;;;;;;56.07;24.37;;;;;;;1.30;100.00;102030.63;7389240;19;20792;-55
2023/01/29 09:46:35;;;;;;;45.97;18.60;;;;;;;1.31;100.00;102027.31;7387555;19;20422;-55
2023/01/29 09:49:09;;;;;;;51.93;22.57;;;;;;;1.34;100.00;102005.63;7388915;19;20394;-56
2023/01/29 09:51:42;;;;;;;56.00;23.57;;;;;;;1.35;100.00;101988.75;7385024;19;20473;-55
2023/01/29 09:54:17;;;;;;;41.33;17.93;;;;;;;1.35;100.00;101974.34;7388975;19;20411;-56
2023/01/29 09:56:52;;;;;;;60.30;25.90;;;;;;;1.40;100.00;101958.66;7387665;19;20452;-58
2023/01/29 09:59:23;;;;;;;63.20;27.77;;;;;;;1.42;100.00;101949.53;7393816;19;20406;-54
2023/01/29 10:02:01;;;;;;;46.00;20.70;;;;;;;1.43;100.00;101928.44;7388988;19;20454;-57
2023/01/29 10:04:58;;;;;;;31.67;14.40;;;;;;;1.43;100.00;101913.19;7392376;19;20771;-58
2023/01/29 10:08:00;;;;;;;75.30;29.77;;;;;;;1.46;100.00;101906.75;7388778;19;20443;-55
2023/01/29 10:10:36;;;;;;;53.27;23.13;;;;;;;1.54;100.00;101899.84;7385896;19;20455;-56
2023/01/29 10:13:19;;;;;;;44.93;19.40;;;;;;;1.60;100.00;101891.94;7392752;19;20391;-58
2023/01/29 10:16:00;;;;;;;50.93;20.60;;;;;;;1.62;100.00;101885.31;7388018;19;20422;-54
2023/01/29 10:18:47;;;;;;;29.57;14.33;;;;;;;1.63;100.00;101873.50;7391168;19;20407;-56
2023/01/29 10:21:26;;;;;;;29.17;13.53;;;;;;;1.59;100.00;101862.16;7386252;19;20969;-57
2023/01/29 10:23:59;;;;;;;52.10;21.87;;;;;;;1.73;100.00;101845.63;7392739;19;20401;-56
2023/01/29 10:26:29;;;;;;;40.70;15.63;;;;;;;1.67;100.00;101850.13;7385787;19;20415;-55
2023/01/29 10:29:03;;;;;;;50.97;21.50;;;;;;;1.66;100.00;101844.16;7392422;19;20411;-56
2023/01/29 10:31:37;;;;;;;53.57;23.17;;;;;;;1.68;100.00;101837.56;7385410;19;20442;-52
2023/01/29 10:34:12;;;;;;;44.53;18.27;;;;;;;1.69;100.00;101848.66;7392856;19;21017;-58
2023/01/29 10:36:44;;;;;;;28.10;12.90;;;;;;;1.70;100.00;101851.31;7382416;19;20440;-57
2023/01/29 10:39:19;;;;;;;58.47;22.00;;;;;;;1.70;100.00;101841.13;7398757;19;20390;-56
2023/01/29 10:42:04;;;;;;;50.70;19.20;;;;;;;1.72;100.00;101833.66;7394993;19;20426;-61
2023/01/29 10:44:48;;;;;;;63.43;25.37;;;;;;;1.72;100.00;101839.66;7398432;19;20479;-57
2023/01/29 10:47:28;;;;;;;46.53;17.20;;;;;;;1.70;100.00;101830.97;7399621;19;20406;-58
2023/01/29 10:50:07;;;;;;;53.63;22.40;;;;;;;1.70;100.00;101828.41;7392817;19;20426;-51
2023/01/29 10:52:44;;;;;;;35.23;17.50;;;;;;;1.79;100.00;101819.88;7396073;19;20409;-58
2023/01/29 10:55:25;;;;;;;71.13;16.43;;;;;;;1.75;100.00;101819.56;7393395;19;20439;-54
2023/01/29 10:58:02;;;;;;;59.70;24.97;;;;;;;1.77;100.00;101806.09;7394826;19;20453;-54
2023/01/29 11:00:37;;;;;;;61.30;25.40;;;;;;;1.77;100.00;101826.44;7393863;19;20962;-58
2023/01/29 11:03:17;;;;;;;29.60;11.97;;;;;;;1.94;100.00;101800.94;7399071;19;20394;-57
2023/01/29 11:06:01;;;;;;;60.30;22.13;;;;;;;1.82;100.00;101804.88;7393034;19;20501;-56
2023/01/29 11:08:36;;;;;;;47.00;18.33;;;;;;;1.79;100.00;101813.13;7398503;19;20415;-56
2023/01/29 11:11:08;;;;;;;54.67;25.37;;;;;;;1.80;100.00;101817.47;7392664;19;20406;-54
2023/01/29 11:13:42;;;;;;;62.13;28.60;;;;;;;1.80;100.00;101812.38;7398007;19;20391;-60
2023/01/29 11:16:14;;;;;;;48.23;22.37;;;;;;;1.83;100.00;101821.94;7395161;19;20419;-60
2023/01/29 11:18:52;;;;;;;39.93;15.10;;;;;;;1.81;100.00;101818.38;7396505;19;20758;-56
2023/01/29 11:21:23;;;;;;;55.63;23.40;;;;;;;1.85;100.00;101820.47;7392746;19;20413;-52
2023/01/29 11:23:53;;;;;;;52.70;22.43;;;;;;;1.83;100.00;101822.84;7398178;19;20483;-55
2023/01/29 11:26:23;;;;;;;53.17;21.53;;;;;;;1.84;100.00;101819.56;7394774;19;20455;-58
2023/01/29 11:28:55;;;;;;;34.50;15.70;;;;;;;1.85;100.00;101820.47;7397690;19;20988;-57
2023/01/29 11:31:29;;;;;;;55.60;24.80;;;;;;;1.88;100.00;101813.09;7390630;19;20442;-57
2023/01/29 11:34:05;;;;;;;44.30;19.37;;;;;;;1.87;100.00;101813.84;7397597;19;20406;-55
2023/01/29 11:36:38;;;;;;;45.40;19.43;;;;;;;1.85;100.00;101820.47;7393200;19;20451;-59
2023/01/29 11:39:15;;;;;;;44.23;19.13;;;;;;;1.89;100.00;101823.44;7395459;19;20945;-57
2023/01/29 11:41:46;;;;;;;41.80;20.57;;;;;;;1.93;100.00;101808.44;7393945;19;20469;-57
2023/01/29 11:44:20;;;;;;;56.80;25.13;;;;;;;1.93;100.00;101814.44;7398013;19;20410;-52
2023/01/29 11:46:52;;;;;;;61.07;28.60;;;;;;;1.98;100.00;101823.41;7393135;19;20420;-55
2023/01/29 11:49:26;;;;;;;30.73;13.67;;;;;;;1.93;100.00;101827.16;7396917;19;20427;-57
2023/01/29 11:51:57;;;;;;;32.63;13.57;;;;;;;1.94;100.00;101816.22;7392324;19;20443;-56
2023/01/29 11:54:31;;;;;;;48.43;21.53;;;;;;;1.96;100.00;101819.81;7398129;19;20415;-55
2023/01/29 11:57:00;;;;;;;51.20;24.27;;;;;;;1.95;100.00;101818.00;7392981;19;20438;-57
2023/01/29 11:59:38;;;;;;;62.30;28.10;;;;;;;1.98;100.00;101817.41;7393870;19;20428;-53
2023/01/29 12:02:21;;;;;;;57.23;27.27;;;;;;;2.02;100.00;101824.59;7388023;19;20978;-55
2023/01/29 12:04:51;;;;;;;61.90;28.47;;;;;;;2.00;100.00;101824.44;7396376;19;20447;-59
2023/01/29 12:07:21;;;;;;;34.17;17.80;;;;;;;1.97;100.00;101826.72;7393966;19;20453;-57
2023/01/29 12:09:54;;;;;;;39.43;17.50;;;;;;;1.97;100.00;101816.53;7395535;19;20395;-58